KCEU/CEU METAR and TAF weather

Enter ICAO airport designator
Station Type Date Time Source
KCEU METAR 2020/11/25 22:54 UTC NOAA

KCEU 252254Z AUTO 02004KT 10SM BKN036 OVC042 13/10 A3014 RMK AO2 RAB23E37 SLP205 P0000 T01330100


Station Type Date Time Source
KCEU Decoded METAR 2020/11/25 22:54 UTC NOAA

CLEMSON-OCONEE COUNTY AIRPORT , SC, United States (KCEU) 34-40N 082-53W 268M
Nov 25, 2020 - 05:54 PM EST / 2020.11.25 2254 UTC
Wind: from the NNE (020 degrees) at 5 MPH (4 KT):0
Visibility: 10 mile(s):0
Sky conditions: overcast
Precipitation last hour: A trace
Temperature: 55.9 F (13.3 C)
Dew Point: 50.0 F (10.0 C)
Relative Humidity: 80%
Pressure (altimeter): 30.14 in. Hg (1020 hPa)
ob: KCEU 252254Z AUTO 02004KT 10SM BKN036 OVC042 13/10 A3014 RMK AO2 RAB23E37 SLP205 P0000 T01330100
cycle: 23

Station Type Date Time Source
KCEU TAF UTC NOAA

Error!

Example: see airport list